Time;durP1;ratioP1;P1;durP2;ratioP2;P2;SDS_P1;SDS_P2;PMS_P1;PMS_P2;Temp;Humidity;BMP_temperature;BMP_pressure;BME280_temperature;BME280_humidity;BME280_pressure;Samples;Min_cycle;Max_cycle;Signal;HPM_P1;HPM_P2
2021/10/18 00:01:23;;;;;;;7.47;3.05;;;;;;;8.48;64.04;99175.34;5051873;28;20392;-57
2021/10/18 00:03:48;;;;;;;5.20;2.88;;;;;;;8.48;64.45;99170.03;5053308;28;20477;-58
2021/10/18 00:06:14;;;;;;;6.30;2.80;;;;;;;8.47;64.15;99168.31;5052783;28;20033;-57
2021/10/18 00:08:39;;;;;;;7.30;2.72;;;;;;;8.48;64.48;99171.81;5053000;28;20025;-58
2021/10/18 00:11:05;;;;;;;6.95;2.70;;;;;;;8.43;64.18;99158.03;5052071;28;20033;-59
2021/10/18 00:13:31;;;;;;;6.82;2.85;;;;;;;8.41;64.74;99149.31;5053150;28;20080;-60
2021/10/18 00:15:56;;;;;;;4.50;2.58;;;;;;;8.44;64.76;99159.72;5052686;28;20409;-59
2021/10/18 00:18:22;;;;;;;6.30;2.80;;;;;;;8.45;64.40;99162.28;5053450;28;20075;-60
2021/10/18 00:20:48;;;;;;;4.68;2.60;;;;;;;8.45;64.51;99156.06;5051615;28;20029;-59
2021/10/18 00:23:13;;;;;;;6.00;2.75;;;;;;;8.43;64.81;99156.19;5052620;28;20037;-59
2021/10/18 00:25:38;;;;;;;6.75;2.72;;;;;;;8.44;65.00;99159.72;5053213;28;20366;-60
2021/10/18 00:28:04;;;;;;;4.55;2.90;;;;;;;8.43;64.74;99148.19;5052499;28;20393;-55
2021/10/18 00:30:30;;;;;;;7.55;3.35;;;;;;;8.42;64.96;99157.16;5052405;28;20103;-53
2021/10/18 00:32:55;;;;;;;5.78;3.30;;;;;;;8.24;64.60;99119.53;5053024;28;20033;-55
2021/10/18 00:35:21;;;;;;;7.60;2.97;;;;;;;8.24;65.00;99124.03;5053036;28;20029;-57
2021/10/18 00:37:46;;;;;;;4.97;2.67;;;;;;;8.41;64.85;99144.81;5052465;28;20029;-56
2021/10/18 00:40:12;;;;;;;6.93;3.03;;;;;;;8.41;65.03;99146.63;5052633;28;20583;-57
2021/10/18 00:42:38;;;;;;;4.93;2.78;;;;;;;8.40;65.02;99134.28;5052147;28;20029;-56
2021/10/18 00:45:05;;;;;;;5.32;3.08;;;;;;;8.35;65.16;99131.97;5052695;28;20480;-54
2021/10/18 00:47:31;;;;;;;3.60;2.85;;;;;;;8.39;64.91;99127.25;5052407;28;20037;-57
2021/10/18 00:49:56;;;;;;;7.60;2.90;;;;;;;8.44;65.02;99141.03;5050508;28;20025;-53
2021/10/18 00:52:22;;;;;;;8.02;2.72;;;;;;;8.40;65.09;99136.94;5050559;28;20037;-58
2021/10/18 00:54:50;;;;;;;8.60;3.15;;;;;;;8.38;65.16;99134.38;5051687;28;20029;-56
2021/10/18 00:57:17;;;;;;;5.40;2.95;;;;;;;8.41;64.96;99127.97;5051254;28;20032;-56
2021/10/18 00:59:43;;;;;;;6.13;2.90;;;;;;;8.44;64.90;99133.91;5051509;28;20033;-56
2021/10/18 01:02:09;;;;;;;6.13;3.25;;;;;;;8.45;65.09;99137.41;5051887;28;20025;-56
2021/10/18 01:04:35;;;;;;;7.85;3.00;;;;;;;8.24;65.12;99097.38;5052968;28;20409;-55
2021/10/18 01:07:01;;;;;;;7.40;3.10;;;;;;;8.42;65.24;99127.81;5051276;28;20025;-59
2021/10/18 01:09:27;;;;;;;7.05;3.63;;;;;;;8.42;65.00;99127.81;5051347;28;20111;-57
2021/10/18 01:11:52;;;;;;;8.93;3.20;;;;;;;8.37;65.03;99107.88;5051177;28;20123;-59
2021/10/18 01:14:18;;;;;;;5.40;3.22;;;;;;;8.40;65.17;99108.44;5050513;28;20106;-55
2021/10/18 01:16:43;;;;;;;7.05;3.15;;;;;;;8.43;64.76;99113.50;5050998;28;20037;-56
2021/10/18 01:19:14;;;;;;;7.10;3.50;;;;;;;8.43;64.88;99110.84;5051272;28;20028;-58
2021/10/18 01:21:40;;;;;;;9.40;3.40;;;;;;;8.46;65.08;99112.41;5051095;28;20029;-59
2021/10/18 01:24:06;;;;;;;5.75;3.35;;;;;;;8.41;64.78;99101.28;5052215;28;20036;-58
2021/10/18 01:26:32;;;;;;;8.40;3.40;;;;;;;8.44;64.71;99109.91;5051414;28;20360;-57
2021/10/18 01:28:57;;;;;;;8.52;3.90;;;;;;;8.44;64.74;99107.22;5051210;28;20407;-56
2021/10/18 01:31:23;;;;;;;9.10;3.10;;;;;;;8.43;64.80;99105.50;5051067;28;20037;-57
2021/10/18 01:33:48;;;;;;;6.18;3.60;;;;;;;8.42;64.75;99101.16;5050742;28;20031;-55
2021/10/18 01:36:14;;;;;;;9.60;4.32;;;;;;;8.44;64.53;99107.22;5050958;28;20276;-58
2021/10/18 01:38:40;;;;;;;6.80;3.72;;;;;;;8.46;64.86;99105.28;5050639;28;20063;-58
2021/10/18 01:41:05;;;;;;;11.02;3.20;;;;;;;8.44;64.46;99093.03;5050590;28;20035;-57
2021/10/18 01:43:31;;;;;;;7.68;3.50;;;;;;;8.43;64.54;99096.69;5050431;28;20081;-59
2021/10/18 01:45:56;;;;;;;6.40;3.67;;;;;;;8.18;64.46;99062.22;5050762;28;20045;-55
2021/10/18 01:48:22;;;;;;;7.03;4.00;;;;;;;8.42;64.15;99094.97;5049964;28;20044;-59
2021/10/18 01:50:47;;;;;;;8.93;3.88;;;;;;;8.40;63.91;99083.59;5051184;28;20021;-57
2021/10/18 01:53:13;;;;;;;6.13;4.00;;;;;;;8.36;64.03;99075.00;5050659;28;20044;-57
2021/10/18 01:55:38;;;;;;;6.55;3.70;;;;;;;8.41;63.94;99093.28;5049374;28;20031;-56
2021/10/18 01:58:04;;;;;;;8.90;3.67;;;;;;;8.40;63.67;99088.94;5050690;28;20078;-59
2021/10/18 02:00:29;;;;;;;9.95;3.72;;;;;;;8.36;63.80;99091.00;5049389;28;20036;-55
2021/10/18 02:02:55;;;;;;;7.00;3.42;;;;;;;8.16;63.96;99053.50;5050313;28;20406;-55
2021/10/18 02:05:20;;;;;;;7.03;4.07;;;;;;;8.30;63.98;99076.34;5050195;28;20116;-56
2021/10/18 02:07:46;;;;;;;6.00;3.33;;;;;;;8.36;63.90;99076.84;5050575;28;20029;-57
2021/10/18 02:10:13;;;;;;;4.82;3.22;;;;;;;8.34;63.38;99082.28;5050525;28;20036;-57
2021/10/18 02:12:39;;;;;;;9.65;3.88;;;;;;;8.30;63.36;99080.84;5051438;28;20049;-57
2021/10/18 02:15:06;;;;;;;5.38;3.53;;;;;;;8.29;63.82;99081.81;5049523;28;20515;-59
2021/10/18 02:17:31;;;;;;;6.75;3.67;;;;;;;8.27;63.65;99070.44;5050705;28;20037;-57
2021/10/18 02:19:58;;;;;;;8.50;3.72;;;;;;;8.21;64.16;99066.44;5049795;28;20060;-60
2021/10/18 02:22:23;;;;;;;10.18;4.15;;;;;;;8.12;63.87;99056.56;5042147;28;20144;-55
2021/10/18 02:24:49;;;;;;;8.10;4.00;;;;;;;8.03;64.07;99052.84;5030522;28;20474;-57
2021/10/18 02:27:14;;;;;;;7.43;3.53;;;;;;;7.85;64.69;99056.03;5029510;28;20160;-58
2021/10/18 02:29:40;;;;;;;6.10;3.50;;;;;;;7.70;64.92;99044.81;5031305;28;20040;-57
2021/10/18 02:32:06;;;;;;;6.80;3.80;;;;;;;7.68;65.08;99048.56;5030862;28;20485;-58
2021/10/18 02:34:31;;;;;;;8.18;3.42;;;;;;;7.65;65.17;99060.31;5052456;28;20025;-58
2021/10/18 02:36:56;;;;;;;7.07;3.88;;;;;;;7.58;65.32;99059.09;5065472;28;20035;-59
2021/10/18 02:39:22;;;;;;;9.45;3.90;;;;;;;7.56;65.62;99045.06;5067427;28;20473;-59
2021/10/18 02:41:47;;;;;;;6.78;3.72;;;;;;;7.45;65.68;99048.59;5066513;28;20099;-57
2021/10/18 02:44:13;;;;;;;7.85;4.10;;;;;;;7.39;65.96;99051.75;5065678;28;20103;-58
2021/10/18 02:46:38;;;;;;;8.63;4.03;;;;;;;7.16;66.20;99033.13;5067457;28;20025;-54
2021/10/18 02:49:04;;;;;;;7.85;3.90;;;;;;;7.14;66.85;99038.59;5066307;28;20028;-57
2021/10/18 02:51:29;;;;;;;6.43;3.80;;;;;;;7.13;66.69;99041.38;5063501;28;20040;-56
2021/10/18 02:53:55;;;;;;;8.52;3.75;;;;;;;7.16;66.83;99046.44;5029093;28;20064;-58
2021/10/18 02:56:20;;;;;;;9.75;3.58;;;;;;;7.15;67.20;99029.63;5030852;28;20432;-59
2021/10/18 02:58:45;;;;;;;7.78;3.65;;;;;;;7.09;67.06;99022.13;5031706;28;20104;-56
2021/10/18 03:01:11;;;;;;;6.88;3.67;;;;;;;7.22;67.02;99026.47;5030831;28;20033;-57
2021/10/18 03:03:36;;;;;;;8.38;3.63;;;;;;;7.27;66.95;99026.97;5030089;28;20099;-55
2021/10/18 03:06:02;;;;;;;6.70;3.65;;;;;;;7.29;66.71;99020.56;5028823;28;20120;-53
2021/10/18 03:08:28;;;;;;;7.50;4.07;;;;;;;7.30;66.53;99018.72;5030963;28;20121;-55
2021/10/18 03:10:53;;;;;;;9.77;4.40;;;;;;;7.32;66.79;99017.63;5029005;28;20116;-57
2021/10/18 03:13:20;;;;;;;9.35;4.78;;;;;;;7.31;66.75;99013.28;5030062;28;20045;-58
2021/10/18 03:15:46;;;;;;;8.75;4.82;;;;;;;7.28;66.84;99010.00;5030259;28;20100;-59
2021/10/18 03:18:11;;;;;;;10.02;4.78;;;;;;;7.14;66.94;98995.16;5031024;28;20033;-57
2021/10/18 03:20:37;;;;;;;8.52;4.50;;;;;;;7.13;67.37;99012.94;5030319;28;20032;-58
2021/10/18 03:23:03;;;;;;;8.82;5.30;;;;;;;7.03;67.65;98994.19;5029784;28;20033;-60
2021/10/18 03:25:34;;;;;;;7.07;4.40;;;;;;;6.94;68.25;98999.41;5030005;28;20420;-57
2021/10/18 03:27:59;;;;;;;10.52;4.57;;;;;;;6.81;68.40;98980.88;5030655;28;20034;-57
2021/10/18 03:30:25;;;;;;;8.45;4.13;;;;;;;6.72;68.63;98993.94;5029906;28;20099;-58
2021/10/18 03:32:50;;;;;;;7.18;4.28;;;;;;;6.67;69.07;98977.47;5030006;28;20466;-54
2021/10/18 03:35:15;;;;;;;7.15;4.53;;;;;;;6.69;69.20;98988.84;5030172;28;20032;-59
2021/10/18 03:37:41;;;;;;;9.98;4.50;;;;;;;6.66;68.96;98977.63;5029905;28;20394;-56
2021/10/18 03:40:10;;;;;;;7.88;4.07;;;;;;;6.73;68.75;98982.31;5029732;28;20469;-56
2021/10/18 03:42:37;;;;;;;7.13;4.35;;;;;;;6.77;68.89;98982.94;5028437;28;20036;-60
2021/10/18 03:45:08;;;;;;;7.55;4.43;;;;;;;6.82;68.91;98993.22;5028867;28;20104;-57
2021/10/18 03:47:35;;;;;;;11.77;3.92;;;;;;;6.90;68.25;98982.81;5033769;28;20044;-60
2021/10/18 03:50:03;;;;;;;5.38;3.70;;;;;;;6.98;67.97;98984.88;5033182;28;20055;-58
2021/10/18 03:52:29;;;;;;;7.05;3.67;;;;;;;6.98;67.50;98966.25;5033356;28;20492;-56
2021/10/18 03:54:54;;;;;;;8.30;3.88;;;;;;;6.86;67.41;98947.59;5033124;28;20029;-59
2021/10/18 03:57:20;;;;;;;7.05;4.18;;;;;;;7.14;67.26;98979.16;5031772;28;20033;-57
2021/10/18 03:59:45;;;;;;;7.72;3.85;;;;;;;6.99;67.07;98946.66;5032328;28;20021;-61
2021/10/18 04:02:10;;;;;;;6.70;3.70;;;;;;;7.21;66.95;98966.22;5032253;28;20116;-57
2021/10/18 04:04:36;;;;;;;6.90;3.28;;;;;;;7.19;66.55;98963.66;5032915;28;20112;-59
2021/10/18 04:07:02;;;;;;;11.10;4.25;;;;;;;7.26;66.63;98959.56;5032710;28;20065;-57
2021/10/18 04:09:28;;;;;;;5.10;3.65;;;;;;;7.24;66.39;98957.97;5032891;28;20036;-59
2021/10/18 04:11:53;;;;;;;7.28;3.67;;;;;;;7.28;66.51;98962.94;5032268;28;20037;-58
2021/10/18 04:14:19;;;;;;;7.95;3.63;;;;;;;7.33;66.16;98965.22;5032957;28;20194;-56
2021/10/18 04:16:44;;;;;;;7.22;3.65;;;;;;;7.37;66.26;98955.16;5032561;28;20204;-58
2021/10/18 04:19:10;;;;;;;7.85;3.85;;;;;;;7.33;66.32;98942.09;5032739;28;20040;-58
2021/10/18 04:21:36;;;;;;;10.05;4.18;;;;;;;7.51;65.97;98954.91;5032764;28;20309;-58
2021/10/18 04:24:01;;;;;;;6.57;4.05;;;;;;;7.55;65.52;98959.00;5033077;28;20068;-55
2021/10/18 04:26:27;;;;;;;6.32;4.05;;;;;;;7.53;65.96;98949.44;5032461;28;20066;-56
2021/10/18 04:28:52;;;;;;;7.18;4.13;;;;;;;7.55;65.92;98945.69;5031547;28;20030;-57
2021/10/18 04:31:18;;;;;;;6.82;3.92;;;;;;;7.55;65.80;98948.34;5032535;28;20032;-58
2021/10/18 04:33:43;;;;;;;7.05;3.80;;;;;;;7.66;65.72;98949.25;5033403;28;20481;-57
2021/10/18 04:36:09;;;;;;;11.05;4.55;;;;;;;7.69;65.62;98947.19;5032922;28;20029;-57
2021/10/18 04:38:34;;;;;;;9.35;4.22;;;;;;;7.75;65.24;98945.84;5032535;28;20113;-57
2021/10/18 04:41:00;;;;;;;10.57;4.97;;;;;;;7.76;65.23;98945.72;5032257;28;20036;-54
2021/10/18 04:43:25;;;;;;;10.20;4.50;;;;;;;7.80;65.13;98946.31;5032908;28;20061;-56
2021/10/18 04:45:51;;;;;;;9.70;4.97;;;;;;;7.78;65.42;98948.25;5032703;28;20029;-56
2021/10/18 04:48:16;;;;;;;7.78;5.18;;;;;;;7.53;65.93;98913.00;5032374;28;20029;-57
2021/10/18 04:50:41;;;;;;;10.30;5.10;;;;;;;7.64;66.02;98935.22;5031939;28;20029;-55
2021/10/18 04:53:07;;;;;;;8.82;5.30;;;;;;;7.64;66.37;98941.41;5032720;28;20030;-56
2021/10/18 04:55:33;;;;;;;8.43;5.00;;;;;;;7.63;66.54;98934.41;5032526;28;20032;-54
2021/10/18 04:58:07;;;;;;;9.45;4.95;;;;;;;7.65;66.96;98936.91;5031251;28;20155;-57
2021/10/18 05:00:36;;;;;;;7.22;4.25;;;;;;;7.59;66.30;98933.78;5032209;28;20088;-54
2021/10/18 05:03:03;;;;;;;8.88;4.75;;;;;;;7.63;66.63;98936.19;5032344;28;20117;-55
2021/10/18 05:05:28;;;;;;;12.30;4.90;;;;;;;7.58;66.48;98915.25;5032582;28;20176;-55
2021/10/18 05:08:11;;;;;;;8.70;4.40;;;;;;;7.78;66.12;98936.75;5031795;28;20116;-58
2021/10/18 05:10:39;;;;;;;9.35;4.60;;;;;;;7.71;66.26;98931.06;5031903;28;20040;-56
2021/10/18 05:13:05;;;;;;;11.05;4.97;;;;;;;7.75;66.34;98937.88;5032677;28;20498;-57
2021/10/18 05:15:31;;;;;;;9.38;5.18;;;;;;;7.70;66.45;98929.38;5032481;28;20041;-58
2021/10/18 05:17:57;;;;;;;7.93;4.93;;;;;;;7.76;66.42;98935.06;5030323;28;20650;-58
2021/10/18 05:20:23;;;;;;;9.43;5.60;;;;;;;7.80;66.34;98937.44;5031700;28;20088;-57
2021/10/18 05:22:48;;;;;;;10.20;4.78;;;;;;;7.83;66.06;98935.38;5032220;28;20030;-53
2021/10/18 05:25:14;;;;;;;11.63;5.68;;;;;;;7.82;66.43;98933.69;5031466;28;20403;-57
2021/10/18 05:27:40;;;;;;;9.27;5.25;;;;;;;7.73;66.41;98921.16;5031096;28;20037;-57
2021/10/18 05:30:08;;;;;;;10.23;5.10;;;;;;;7.85;66.39;98936.09;5031028;28;20085;-57
2021/10/18 05:32:33;;;;;;;10.32;5.15;;;;;;;7.79;66.23;98928.63;5029586;28;20040;-57
2021/10/18 05:34:59;;;;;;;8.07;5.63;;;;;;;7.83;66.59;98939.84;5031542;28;20033;-57
2021/10/18 05:37:25;;;;;;;10.93;5.28;;;;;;;7.81;66.37;98924.03;5031028;28;20116;-58
2021/10/18 05:39:50;;;;;;;7.63;5.25;;;;;;;7.86;66.71;98936.97;5031599;28;20029;-57
2021/10/18 05:42:17;;;;;;;8.80;5.55;;;;;;;7.85;67.05;98933.44;5036396;28;20029;-59
2021/10/18 05:44:43;;;;;;;10.57;5.68;;;;;;;7.84;67.12;98925.59;5031048;28;20087;-55
2021/10/18 05:47:08;;;;;;;13.20;5.50;;;;;;;7.64;66.95;98893.47;5030790;28;20041;-58
2021/10/18 05:49:34;;;;;;;10.55;5.05;;;;;;;7.88;67.32;98927.84;5043859;28;20029;-57
2021/10/18 05:52:01;;;;;;;9.55;5.13;;;;;;;7.93;67.43;98930.13;5044810;28;20051;-58
2021/10/18 05:54:27;;;;;;;7.93;5.00;;;;;;;7.96;67.61;98929.03;5039841;28;20480;-61
2021/10/18 05:56:52;;;;;;;10.27;5.38;;;;;;;7.97;67.69;98922.75;5040023;28;20020;-56
2021/10/18 05:59:18;;;;;;;8.38;4.88;;;;;;;7.95;68.20;98919.31;5040456;28;20373;-59
2021/10/18 06:01:44;;;;;;;7.88;5.22;;;;;;;7.96;67.86;98924.53;5038795;28;20083;-60
2021/10/18 06:04:10;;;;;;;10.25;5.38;;;;;;;7.99;67.98;98928.78;5041337;28;20432;-58
2021/10/18 06:06:36;;;;;;;13.32;5.20;;;;;;;7.98;68.23;98917.25;5040954;28;20040;-58
2021/10/18 06:09:03;;;;;;;8.07;5.15;;;;;;;8.03;68.07;98920.38;5041423;28;20096;-56
2021/10/18 06:11:29;;;;;;;7.00;4.85;;;;;;;8.05;67.98;98922.94;5041650;28;20076;-55
2021/10/18 06:13:54;;;;;;;14.10;5.18;;;;;;;8.06;68.22;98924.63;5038776;28;20053;-56
2021/10/18 06:16:19;;;;;;;8.77;4.95;;;;;;;8.05;67.98;98925.59;5039690;28;20043;-55
2021/10/18 06:18:45;;;;;;;10.35;5.30;;;;;;;8.03;68.40;98924.88;5040721;28;20033;-54
2021/10/18 06:21:11;;;;;;;10.60;5.40;;;;;;;7.79;68.50;98880.66;5047811;28;20025;-56
2021/10/18 06:23:36;;;;;;;7.35;5.30;;;;;;;8.02;68.48;98924.03;5040778;28;20025;-53
2021/10/18 06:26:03;;;;;;;11.60;5.20;;;;;;;8.10;68.80;98928.72;5040226;28;20037;-56
2021/10/18 06:28:28;;;;;;;9.48;4.53;;;;;;;8.13;68.16;98930.28;5041269;28;20095;-57
2021/10/18 06:30:54;;;;;;;13.45;4.63;;;;;;;8.08;68.22;98928.00;5039233;28;20037;-60
2021/10/18 06:33:20;;;;;;;8.27;4.60;;;;;;;8.13;68.13;98931.09;5040388;28;20032;-55
2021/10/18 06:35:46;;;;;;;8.73;4.38;;;;;;;7.92;68.27;98906.25;5040094;28;20022;-57
2021/10/18 06:38:18;;;;;;;7.65;4.47;;;;;;;8.15;68.32;98944.31;5037431;28;20044;-55
2021/10/18 06:40:44;;;;;;;9.48;4.47;;;;;;;8.07;67.66;98939.63;5030912;28;20033;-57
2021/10/18 06:43:10;;;;;;;7.80;3.92;;;;;;;8.07;67.61;98952.97;5036565;28;20036;-57
2021/10/18 06:45:36;;;;;;;9.27;4.13;;;;;;;8.03;68.14;98963.03;5046727;28;20024;-58
2021/10/18 06:48:02;;;;;;;4.63;2.60;;;;;;;7.92;66.19;98965.75;5048367;28;20032;-52
2021/10/18 06:50:29;;;;;;;4.00;2.13;;;;;;;7.78;65.37;98968.72;5050857;28;20044;-56
2021/10/18 06:52:56;;;;;;;1.50;1.30;;;;;;;7.62;65.11;98967.34;5049907;28;20033;-54
2021/10/18 06:55:23;;;;;;;1.98;1.13;;;;;;;7.39;64.67;98948.75;5048928;28;20103;-53
2021/10/18 06:57:49;;;;;;;1.52;0.90;;;;;;;7.44;64.33;98986.50;5050871;28;20025;-55
2021/10/18 07:00:14;;;;;;;5.68;1.08;;;;;;;7.39;64.33;98995.84;5050750;28;20041;-53
2021/10/18 07:02:40;;;;;;;2.10;0.80;;;;;;;7.33;64.48;98987.38;5045473;28;20041;-52
2021/10/18 07:05:06;;;;;;;1.42;0.90;;;;;;;7.28;64.63;99000.22;5049977;28;20041;-54
2021/10/18 07:07:32;;;;;;;0.90;0.80;;;;;;;7.33;65.80;98998.03;5048861;28;20112;-53
2021/10/18 07:10:00;;;;;;;1.52;0.98;;;;;;;7.40;65.17;99013.50;5050292;28;20040;-56
2021/10/18 07:12:30;;;;;;;4.60;0.98;;;;;;;7.51;65.47;99015.31;5049940;28;20072;-53
2021/10/18 07:14:57;;;;;;;4.10;1.10;;;;;;;7.57;65.18;99030.78;5049733;28;20481;-55
2021/10/18 07:17:23;;;;;;;2.90;1.10;;;;;;;7.57;66.24;99030.78;5050816;28;20044;-55
2021/10/18 07:19:52;;;;;;;1.77;1.00;;;;;;;7.63;65.62;99042.75;5050683;28;20029;-54
2021/10/18 07:22:19;;;;;;;1.95;0.65;;;;;;;7.38;64.58;99044.75;5052122;28;20036;-55
2021/10/18 07:24:45;;;;;;;1.50;0.60;;;;;;;7.21;65.81;99046.91;5053837;28;20040;-53
2021/10/18 07:27:11;;;;;;;2.38;0.73;;;;;;;7.17;64.95;99072.09;5053235;28;20029;-56
2021/10/18 07:29:38;;;;;;;0.73;0.50;;;;;;;6.98;64.74;99054.91;5052293;28;20043;-57
2021/10/18 07:32:04;;;;;;;0.85;0.35;;;;;;;6.78;64.95;99050.31;5052505;28;20056;-54
2021/10/18 07:34:29;;;;;;;3.10;0.38;;;;;;;6.76;65.89;99055.72;5051087;28;20134;-54
2021/10/18 07:36:55;;;;;;;0.70;0.40;;;;;;;6.71;65.23;99044.59;5052968;28;20028;-53
2021/10/18 07:39:23;;;;;;;3.83;0.50;;;;;;;6.78;65.55;99063.63;5052595;28;20025;-55
2021/10/18 07:41:50;;;;;;;0.88;0.57;;;;;;;6.84;65.33;99063.13;5052806;28;20029;-57
2021/10/18 07:44:16;;;;;;;1.00;0.60;;;;;;;6.86;65.02;99070.00;5052386;28;20036;-56
2021/10/18 07:46:42;;;;;;;1.08;0.40;;;;;;;6.89;65.18;99068.94;5050819;28;20033;-53
2021/10/18 07:49:09;;;;;;;1.30;0.40;;;;;;;6.95;64.09;99073.78;5052219;28;20599;-52
2021/10/18 07:51:35;;;;;;;2.35;0.40;;;;;;;6.95;64.10;99067.63;5050038;28;20468;-57
2021/10/18 07:54:02;;;;;;;3.03;0.50;;;;;;;6.82;63.92;99027.81;5049213;28;20132;-54
2021/10/18 07:56:27;;;;;;;3.58;0.60;;;;;;;7.08;63.49;99056.84;5050998;28;20461;-55
2021/10/18 07:58:53;;;;;;;0.95;0.40;;;;;;;7.09;63.55;99055.88;5052750;28;20112;-55
2021/10/18 08:01:18;;;;;;;1.55;0.43;;;;;;;7.31;63.42;99063.88;5048880;28;20318;-58
2021/10/18 08:03:44;;;;;;;4.82;0.70;;;;;;;7.61;62.01;99057.06;5062613;28;20020;-55
2021/10/18 08:06:09;;;;;;;1.60;0.52;;;;;;;7.94;61.03;99053.56;5061685;28;20025;-53
2021/10/18 08:08:43;;;;;;;0.93;0.40;;;;;;;8.38;58.74;99062.38;5055400;28;20036;-52
2021/10/18 08:11:08;;;;;;;2.17;0.57;;;;;;;8.85;58.95;99042.47;5052264;28;20753;-54
2021/10/18 08:13:34;;;;;;;2.72;0.47;;;;;;;9.10;56.02;99024.34;5064747;28;20044;-52
2021/10/18 08:15:59;;;;;;;1.30;0.50;;;;;;;9.41;56.95;99059.06;5056561;28;20102;-54
2021/10/18 08:18:25;;;;;;;1.27;0.50;;;;;;;9.56;56.54;99067.53;5059830;28;20045;-56
2021/10/18 08:20:50;;;;;;;1.15;0.40;;;;;;;9.56;56.11;99068.38;5064260;28;20036;-51
2021/10/18 08:23:16;;;;;;;1.55;0.45;;;;;;;9.66;56.75;99063.06;5054989;28;20028;-55
2021/10/18 08:25:41;;;;;;;1.73;0.40;;;;;;;9.85;54.54;99072.09;5066662;28;20035;-55
2021/10/18 08:28:08;;;;;;;0.82;0.40;;;;;;;9.93;54.17;99058.06;5050548;28;20481;-61
2021/10/18 08:30:33;;;;;;;1.05;0.50;;;;;;;9.99;55.22;99062.84;5045008;28;20029;-57
2021/10/18 08:32:59;;;;;;;1.23;0.38;;;;;;;10.17;54.35;99060.31;5045320;28;20025;-58
2021/10/18 08:35:24;;;;;;;0.68;0.35;;;;;;;10.31;52.56;99062.56;5049403;28;20410;-54
2021/10/18 08:40:39;;;;;;;1.70;0.40;;;;;;;10.63;51.63;99063.28;5055221;28;20028;-55
2021/10/18 08:43:25;;;;;;;1.30;0.60;;;;;;;10.63;52.17;99060.63;5067068;28;20066;-58
2021/10/18 08:45:51;;;;;;;3.17;0.60;;;;;;;10.68;51.42;99063.69;5058160;28;20382;-56
2021/10/18 08:48:17;;;;;;;0.70;0.52;;;;;;;10.61;51.86;99067.94;5060790;28;20431;-51
2021/10/18 08:50:43;;;;;;;1.67;0.70;;;;;;;10.56;52.24;99070.19;5065356;28;20034;-61
2021/10/18 08:53:09;;;;;;;3.08;0.80;;;;;;;10.50;52.11;99068.09;5055130;28;20400;-57
2021/10/18 08:55:36;;;;;;;1.55;0.90;;;;;;;10.38;53.30;99078.06;5070323;28;20461;-58
2021/10/18 08:58:03;;;;;;;1.02;0.60;;;;;;;10.33;52.66;99081.16;5063184;28;20036;-62
2021/10/18 09:00:43;;;;;;;1.58;0.52;;;;;;;10.62;53.12;99072.31;5054795;28;20081;-61
2021/10/18 09:03:20;;;;;;;3.53;0.90;;;;;;;10.56;52.44;99073.72;5050274;28;20392;-62
2021/10/18 09:05:46;;;;;;;1.02;0.73;;;;;;;10.20;52.29;99060.03;5057709;28;20377;-60
2021/10/18 09:08:59;;;;;;;3.03;0.60;;;;;;;10.11;53.50;99077.75;5063252;28;20116;-66
2021/10/18 09:11:26;;;;;;;2.13;0.90;;;;;;;9.91;53.47;99077.75;5040546;28;20090;-63
2021/10/18 09:13:52;;;;;;;1.27;0.60;;;;;;;9.96;53.24;99085.34;5055410;28;20127;-63
2021/10/18 09:16:27;;;;;;;1.48;0.80;;;;;;;10.33;52.96;99086.50;5061694;28;20234;-64
2021/10/18 09:19:12;;;;;;;1.40;0.82;;;;;;;10.51;51.90;99084.00;5052568;28;20654;-62
2021/10/18 09:21:47;;;;;;;3.63;1.00;;;;;;;10.63;52.00;99082.84;5060236;28;20511;-62
2021/10/18 09:24:33;;;;;;;;;;;;;;;10.84;52.45;99081.00;5062492;28;20032;-66
2021/10/18 09:27:04;;;;;;;2.13;1.02;;;;;;;10.30;51.28;99092.13;5051858;28;19917;-62
2021/10/18 09:29:44;;;;;;;1.70;0.80;;;;;;;10.00;52.62;99091.25;5061495;28;20029;-62
2021/10/18 09:32:11;;;;;;;1.73;0.75;;;;;;;9.58;53.32;99062.91;5062131;28;20058;-65
2021/10/18 09:34:38;;;;;;;2.03;1.27;;;;;;;9.69;53.41;99092.19;5052460;28;20104;-62
2021/10/18 09:37:09;;;;;;;2.20;0.73;;;;;;;9.74;53.14;99092.59;5065311;28;20099;-61
2021/10/18 09:39:41;;;;;;;2.53;0.95;;;;;;;9.65;52.28;99090.75;5037483;28;20097;-63
2021/10/18 09:42:09;;;;;;;2.67;0.75;;;;;;;9.43;52.65;99081.13;5063129;28;20032;-64
2021/10/18 10:52:41;;;;;;;0.90;0.50;;;;;;;10.26;48.18;99102.28;5040524;28;20029;-60
2021/10/18 10:55:31;;;;;;;2.38;1.08;;;;;;;10.14;48.24;99104.25;5060986;28;20508;-62
2021/10/18 10:58:00;;;;;;;0.75;0.50;;;;;;;9.71;47.63;99097.41;5042560;28;20029;-62
2021/10/18 11:00:41;;;;;;;0.57;0.32;;;;;;;9.54;48.85;99101.56;5064771;28;20048;-66
2021/10/18 11:03:35;;;;;;;0.47;0.40;;;;;;;9.09;49.87;99068.91;5066610;28;20028;-57
2021/10/18 11:06:06;;;;;;;1.42;0.60;;;;;;;9.02;50.03;99111.31;5044503;28;20442;-62
2021/10/18 11:08:40;;;;;;;0.88;0.47;;;;;;;8.82;50.14;99121.03;5053955;28;20033;-64
2021/10/18 11:11:23;;;;;;;1.95;0.40;;;;;;;8.69;50.22;99112.34;5059212;28;20091;-65
2021/10/18 11:13:56;;;;;;;1.38;0.50;;;;;;;8.44;50.78;99109.91;5048587;28;20049;-62
2021/10/18 11:16:31;;;;;;;0.95;0.40;;;;;;;8.32;51.12;99108.22;5050565;28;20076;-60
2021/10/18 11:18:59;;;;;;;1.63;0.70;;;;;;;8.11;50.96;99108.19;5065741;28;20074;-66
2021/10/18 11:21:28;;;;;;;1.85;0.82;;;;;;;8.02;50.72;99109.78;5056929;28;20021;-63
2021/10/18 11:24:04;;;;;;;0.57;0.50;;;;;;;7.72;50.93;99088.16;5068627;28;20033;-63
2021/10/18 11:26:36;;;;;;;1.83;0.70;;;;;;;7.82;51.36;99122.06;5053696;28;20058;-64
2021/10/18 11:29:08;;;;;;;2.45;0.60;;;;;;;7.67;51.00;99102.81;5057854;28;20124;-66
2021/10/18 11:31:40;;;;;;;2.72;0.60;;;;;;;7.66;51.25;99104.66;5050980;28;20463;-61
2021/10/18 11:34:09;;;;;;;1.02;0.55;;;;;;;7.76;50.88;99112.75;5054353;28;20533;-65
2021/10/18 11:36:37;;;;;;;1.83;0.47;;;;;;;7.75;50.67;99103.91;5062025;28;20133;-62
2021/10/18 11:39:09;;;;;;;1.95;0.43;;;;;;;7.88;50.75;99114.41;5058846;28;20029;-64
2021/10/18 11:42:06;;;;;;;1.05;0.68;;;;;;;8.09;50.78;99115.47;5068577;28;20071;-62
2021/10/18 11:44:53;;;;;;;2.28;0.50;;;;;;;8.23;50.92;99122.34;5045777;28;20044;-63
2021/10/18 11:47:32;;;;;;;1.95;0.60;;;;;;;8.44;50.04;99103.69;5063432;28;20180;-65
2021/10/18 11:50:15;;;;;;;1.85;0.60;;;;;;;8.64;49.51;99117.22;5042297;28;20029;-65
2021/10/18 11:52:56;;;;;;;1.25;0.50;;;;;;;8.85;49.06;99101.22;5047944;28;20043;-64
2021/10/18 11:55:29;;;;;;;0.63;0.40;;;;;;;8.90;48.04;99107.00;5065790;28;20032;-62
2021/10/18 11:57:57;;;;;;;3.30;0.50;;;;;;;8.71;46.74;99067.69;5054761;28;20032;-65
2021/10/18 12:00:32;;;;;;;2.35;0.57;;;;;;;9.09;46.51;99108.09;5066283;28;20047;-63
2021/10/18 12:03:01;;;;;;;1.58;0.50;;;;;;;9.00;45.68;99080.34;5066453;28;20112;-64
2021/10/18 12:05:35;;;;;;;1.52;0.40;;;;;;;9.16;46.00;99106.56;5054835;28;20484;-63
2021/10/18 12:08:03;;;;;;;1.23;0.60;;;;;;;8.91;44.92;99098.00;5066306;28;20522;-65
2021/10/18 12:10:29;;;;;;;1.77;0.75;;;;;;;8.67;45.34;99109.78;5061329;28;20032;-64
2021/10/18 12:13:14;;;;;;;2.92;0.68;;;;;;;8.58;46.08;99095.44;5054704;28;20089;-66
2021/10/18 12:15:45;;;;;;;1.23;0.30;;;;;;;8.52;46.59;99103.09;5045225;28;20519;-66
2021/10/18 12:18:12;;;;;;;2.15;0.60;;;;;;;8.42;46.13;99090.47;5057970;28;20037;-65
2021/10/18 12:20:42;;;;;;;2.53;0.55;;;;;;;8.27;46.87;99054.44;5039450;28;20036;-66
2021/10/18 12:23:17;;;;;;;1.48;0.50;;;;;;;8.34;46.47;99082.28;5049090;28;20021;-65
2021/10/18 12:25:58;;;;;;;0.80;0.50;;;;;;;8.32;46.79;99095.75;5038316;28;20031;-63
2021/10/18 12:28:37;;;;;;;1.23;0.80;;;;;;;8.27;47.24;99111.28;5062384;28;20745;-64
2021/10/18 12:31:03;;;;;;;0.75;0.35;;;;;;;8.16;45.93;99100.66;5059417;28;20028;-64
2021/10/18 12:33:34;;;;;;;0.40;0.30;;;;;;;8.06;46.37;99089.91;5068659;28;20073;-63
2021/10/18 12:36:02;;;;;;;1.63;0.40;;;;;;;7.99;45.98;99100.22;5055693;28;20468;-64
2021/10/18 12:38:29;;;;;;;1.05;0.45;;;;;;;7.93;45.76;99105.19;5026503;28;20057;-64
2021/10/18 12:41:11;;;;;;;4.03;0.40;;;;;;;7.89;46.42;99094.78;5057774;28;20476;-63
2021/10/18 12:43:37;;;;;;;0.93;0.60;;;;;;;7.73;46.09;99099.69;5067179;28;20082;-63
2021/10/18 12:46:28;;;;;;;1.13;0.40;;;;;;;7.65;47.23;99094.09;5046162;28;20045;-63
2021/10/18 12:49:14;;;;;;;1.60;0.60;;;;;;;7.64;47.64;99095.94;5046381;28;20032;-66
2021/10/18 12:51:42;;;;;;;2.70;0.50;;;;;;;7.51;47.06;99103.19;5054761;28;20032;-64
2021/10/18 12:54:19;;;;;;;1.33;0.50;;;;;;;7.57;47.73;99110.69;5065343;28;20124;-65
2021/10/18 12:57:01;;;;;;;3.33;0.63;;;;;;;7.45;47.61;99102.72;5063058;28;20495;-64